sensor_id;sensor_type;location;lat;lon;timestamp;temperature;humidity
2409;DHT22;8463;48.094;7.970;2023-07-09T00:00:55;22.30;1.00
2409;DHT22;8463;48.094;7.970;2023-07-09T00:03:20;22.30;1.00
2409;DHT22;8463;48.094;7.970;2023-07-09T00:05:48;22.30;1.00
2409;DHT22;8463;48.094;7.970;2023-07-09T00:08:35;22.30;1.00
2409;DHT22;8463;48.094;7.970;2023-07-09T00:11:06;22.20;1.00
2409;DHT22;8463;48.094;7.970;2023-07-09T00:13:31;22.20;1.00
2409;DHT22;8463;48.094;7.970;2023-07-09T00:15:59;22.20;1.00
2409;DHT22;8463;48.094;7.970;2023-07-09T00:18:25;22.20;1.00
2409;DHT22;8463;48.094;7.970;2023-07-09T00:20:51;22.20;1.00
2409;DHT22;8463;48.094;7.970;2023-07-09T00:25:45;22.10;1.00
2409;DHT22;8463;48.094;7.970;2023-07-09T00:28:17;22.00;1.00
2409;DHT22;8463;48.094;7.970;2023-07-09T00:30:47;22.00;1.00
2409;DHT22;8463;48.094;7.970;2023-07-09T00:33:14;21.90;1.00
2409;DHT22;8463;48.094;7.970;2023-07-09T00:35:44;21.80;1.00
2409;DHT22;8463;48.094;7.970;2023-07-09T00:38:20;21.80;1.00
2409;DHT22;8463;48.094;7.970;2023-07-09T00:41:05;21.70;1.00
2409;DHT22;8463;48.094;7.970;2023-07-09T00:43:35;21.70;1.00
2409;DHT22;8463;48.094;7.970;2023-07-09T00:48:47;21.70;1.00
2409;DHT22;8463;48.094;7.970;2023-07-09T00:51:15;21.70;1.00
2409;DHT22;8463;48.094;7.970;2023-07-09T00:53:43;21.60;1.00
2409;DHT22;8463;48.094;7.970;2023-07-09T00:56:15;21.50;1.00
2409;DHT22;8463;48.094;7.970;2023-07-09T00:58:43;21.50;1.00
2409;DHT22;8463;48.094;7.970;2023-07-09T01:01:14;21.50;1.00
2409;DHT22;8463;48.094;7.970;2023-07-09T01:03:53;21.40;1.00
2409;DHT22;8463;48.094;7.970;2023-07-09T01:06:36;21.40;1.00
2409;DHT22;8463;48.094;7.970;2023-07-09T01:09:04;21.30;1.00
2409;DHT22;8463;48.094;7.970;2023-07-09T01:11:31;21.30;1.00
2409;DHT22;8463;48.094;7.970;2023-07-09T01:14:00;21.30;1.00
2409;DHT22;8463;48.094;7.970;2023-07-09T01:16:46;21.00;1.00
2409;DHT22;8463;48.094;7.970;2023-07-09T01:19:23;21.00;1.00
2409;DHT22;8463;48.094;7.970;2023-07-09T01:22:02;20.90;1.00
2409;DHT22;8463;48.094;7.970;2023-07-09T01:27:32;20.80;1.00
2409;DHT22;8463;48.094;7.970;2023-07-09T01:30:02;20.70;1.00
2409;DHT22;8463;48.094;7.970;2023-07-09T01:32:29;20.70;1.00
2409;DHT22;8463;48.094;7.970;2023-07-09T01:35:01;20.80;1.00
2409;DHT22;8463;48.094;7.970;2023-07-09T01:37:40;20.80;1.00
2409;DHT22;8463;48.094;7.970;2023-07-09T01:40:07;20.90;1.00
2409;DHT22;8463;48.094;7.970;2023-07-09T01:42:41;20.90;1.00
2409;DHT22;8463;48.094;7.970;2023-07-09T01:45:11;20.90;1.00
2409;DHT22;8463;48.094;7.970;2023-07-09T01:47:38;20.90;1.00
2409;DHT22;8463;48.094;7.970;2023-07-09T01:50:06;20.80;1.00
2409;DHT22;8463;48.094;7.970;2023-07-09T01:52:36;20.80;1.00
2409;DHT22;8463;48.094;7.970;2023-07-09T01:55:03;20.80;1.00
2409;DHT22;8463;48.094;7.970;2023-07-09T01:57:30;20.90;1.00
2409;DHT22;8463;48.094;7.970;2023-07-09T02:00:10;20.90;1.00
2409;DHT22;8463;48.094;7.970;2023-07-09T02:02:37;20.80;1.00
2409;DHT22;8463;48.094;7.970;2023-07-09T02:05:07;20.80;1.00
2409;DHT22;8463;48.094;7.970;2023-07-09T02:07:32;20.80;1.00
2409;DHT22;8463;48.094;7.970;2023-07-09T02:09:58;20.70;1.00
2409;DHT22;8463;48.094;7.970;2023-07-09T02:12:27;20.70;1.00
2409;DHT22;8463;48.094;7.970;2023-07-09T02:14:52;20.70;1.00
2409;DHT22;8463;48.094;7.970;2023-07-09T02:17:19;20.70;1.00
2409;DHT22;8463;48.094;7.970;2023-07-09T02:22:11;20.80;1.00
2409;DHT22;8463;48.094;7.970;2023-07-09T02:24:37;20.70;1.00
2409;DHT22;8463;48.094;7.970;2023-07-09T02:27:05;20.60;1.00
2409;DHT22;8463;48.094;7.970;2023-07-09T02:29:31;20.60;1.00
2409;DHT22;8463;48.094;7.970;2023-07-09T02:31:59;20.50;1.00
2409;DHT22;8463;48.094;7.970;2023-07-09T02:34:28;20.40;1.00
2409;DHT22;8463;48.094;7.970;2023-07-09T02:36:57;20.30;1.00
2409;DHT22;8463;48.094;7.970;2023-07-09T02:39:23;20.20;1.00
2409;DHT22;8463;48.094;7.970;2023-07-09T02:41:55;20.00;1.00
2409;DHT22;8463;48.094;7.970;2023-07-09T02:44:23;20.10;1.00
2409;DHT22;8463;48.094;7.970;2023-07-09T02:46:49;20.10;1.00
2409;DHT22;8463;48.094;7.970;2023-07-09T02:49:15;20.30;1.00
2409;DHT22;8463;48.094;7.970;2023-07-09T02:51:41;20.30;1.00
2409;DHT22;8463;48.094;7.970;2023-07-09T02:54:07;20.30;1.00
2409;DHT22;8463;48.094;7.970;2023-07-09T02:58:59;20.30;1.00
2409;DHT22;8463;48.094;7.970;2023-07-09T03:03:53;20.30;1.00
2409;DHT22;8463;48.094;7.970;2023-07-09T03:06:21;20.20;1.00
2409;DHT22;8463;48.094;7.970;2023-07-09T03:08:47;20.30;1.00
2409;DHT22;8463;48.094;7.970;2023-07-09T03:11:13;20.20;1.00
2409;DHT22;8463;48.094;7.970;2023-07-09T03:13:39;20.20;1.00
2409;DHT22;8463;48.094;7.970;2023-07-09T03:16:06;20.20;1.00
2409;DHT22;8463;48.094;7.970;2023-07-09T03:18:32;20.30;1.00
2409;DHT22;8463;48.094;7.970;2023-07-09T03:20:58;20.30;1.00
2409;DHT22;8463;48.094;7.970;2023-07-09T03:23:26;20.20;1.00
2409;DHT22;8463;48.094;7.970;2023-07-09T03:25:52;20.10;1.00
2409;DHT22;8463;48.094;7.970;2023-07-09T03:28:18;20.20;1.00
2409;DHT22;8463;48.094;7.970;2023-07-09T03:30:45;20.20;1.00
2409;DHT22;8463;48.094;7.970;2023-07-09T03:33:13;20.10;1.00
2409;DHT22;8463;48.094;7.970;2023-07-09T03:35:39;20.20;1.00
2409;DHT22;8463;48.094;7.970;2023-07-09T03:38:05;20.10;1.00
2409;DHT22;8463;48.094;7.970;2023-07-09T03:40:38;20.00;1.00
2409;DHT22;8463;48.094;7.970;2023-07-09T03:43:04;20.00;1.00
2409;DHT22;8463;48.094;7.970;2023-07-09T03:45:36;19.90;1.00
2409;DHT22;8463;48.094;7.970;2023-07-09T03:48:04;20.00;1.00
2409;DHT22;8463;48.094;7.970;2023-07-09T03:50:30;19.90;1.00
2409;DHT22;8463;48.094;7.970;2023-07-09T03:53:01;19.90;1.00
2409;DHT22;8463;48.094;7.970;2023-07-09T03:55:27;20.00;1.00
2409;DHT22;8463;48.094;7.970;2023-07-09T03:57:59;19.90;1.00
2409;DHT22;8463;48.094;7.970;2023-07-09T04:00:24;19.90;1.00
2409;DHT22;8463;48.094;7.970;2023-07-09T04:02:51;19.80;1.00
2409;DHT22;8463;48.094;7.970;2023-07-09T04:05:17;19.80;1.00
2409;DHT22;8463;48.094;7.970;2023-07-09T04:07:43;19.80;1.00
2409;DHT22;8463;48.094;7.970;2023-07-09T04:10:09;19.80;1.00
2409;DHT22;8463;48.094;7.970;2023-07-09T04:12:39;19.80;1.00
2409;DHT22;8463;48.094;7.970;2023-07-09T04:15:08;19.80;1.00
2409;DHT22;8463;48.094;7.970;2023-07-09T04:17:34;19.80;1.00
2409;DHT22;8463;48.094;7.970;2023-07-09T04:20:00;19.80;1.00
2409;DHT22;8463;48.094;7.970;2023-07-09T04:22:25;19.80;1.00
2409;DHT22;8463;48.094;7.970;2023-07-09T04:24:51;19.80;1.00
2409;DHT22;8463;48.094;7.970;2023-07-09T04:27:18;19.80;1.00
2409;DHT22;8463;48.094;7.970;2023-07-09T04:29:46;19.80;1.00
2409;DHT22;8463;48.094;7.970;2023-07-09T04:32:14;19.70;1.00
2409;DHT22;8463;48.094;7.970;2023-07-09T04:34:40;19.70;1.00
2409;DHT22;8463;48.094;7.970;2023-07-09T04:37:11;19.80;1.00
2409;DHT22;8463;48.094;7.970;2023-07-09T04:39:37;19.90;1.00
2409;DHT22;8463;48.094;7.970;2023-07-09T04:42:04;20.00;1.00
2409;DHT22;8463;48.094;7.970;2023-07-09T04:44:31;20.10;1.00
2409;DHT22;8463;48.094;7.970;2023-07-09T04:46:56;20.20;1.00
2409;DHT22;8463;48.094;7.970;2023-07-09T04:51:48;20.30;1.00
2409;DHT22;8463;48.094;7.970;2023-07-09T04:54:13;20.30;1.00
2409;DHT22;8463;48.094;7.970;2023-07-09T04:56:41;20.40;1.00
2409;DHT22;8463;48.094;7.970;2023-07-09T04:59:09;20.40;1.00
2409;DHT22;8463;48.094;7.970;2023-07-09T05:01:35;20.40;1.00
2409;DHT22;8463;48.094;7.970;2023-07-09T05:04:01;20.50;1.00
2409;DHT22;8463;48.094;7.970;2023-07-09T05:06:27;20.40;1.00
2409;DHT22;8463;48.094;7.970;2023-07-09T05:08:54;20.50;1.00
2409;DHT22;8463;48.094;7.970;2023-07-09T05:11:20;20.70;1.00
2409;DHT22;8463;48.094;7.970;2023-07-09T05:13:47;20.70;1.00
2409;DHT22;8463;48.094;7.970;2023-07-09T05:16:15;20.80;1.00
2409;DHT22;8463;48.094;7.970;2023-07-09T05:18:45;20.90;1.00
2409;DHT22;8463;48.094;7.970;2023-07-09T05:21:11;21.00;1.00
2409;DHT22;8463;48.094;7.970;2023-07-09T05:23:39;21.00;1.00
2409;DHT22;8463;48.094;7.970;2023-07-09T05:26:07;21.10;1.00
2409;DHT22;8463;48.094;7.970;2023-07-09T05:28:34;21.20;1.00
2409;DHT22;8463;48.094;7.970;2023-07-09T05:31:00;21.40;1.00
2409;DHT22;8463;48.094;7.970;2023-07-09T05:33:25;21.50;1.00
2409;DHT22;8463;48.094;7.970;2023-07-09T05:35:51;21.60;1.00
2409;DHT22;8463;48.094;7.970;2023-07-09T05:38:17;21.70;1.00
2409;DHT22;8463;48.094;7.970;2023-07-09T05:40:45;21.90;1.00
2409;DHT22;8463;48.094;7.970;2023-07-09T05:43:11;22.00;1.00
2409;DHT22;8463;48.094;7.970;2023-07-09T05:45:39;22.10;1.00
2409;DHT22;8463;48.094;7.970;2023-07-09T05:48:07;22.20;1.00
2409;DHT22;8463;48.094;7.970;2023-07-09T05:50:35;22.30;1.00
2409;DHT22;8463;48.094;7.970;2023-07-09T05:53:01;22.40;1.00
2409;DHT22;8463;48.094;7.970;2023-07-09T05:55:27;22.50;1.00
2409;DHT22;8463;48.094;7.970;2023-07-09T05:57:54;22.60;1.00
2409;DHT22;8463;48.094;7.970;2023-07-09T06:02:45;22.80;1.00
2409;DHT22;8463;48.094;7.970;2023-07-09T06:05:11;22.90;1.00
2409;DHT22;8463;48.094;7.970;2023-07-09T06:07:38;23.10;1.00
2409;DHT22;8463;48.094;7.970;2023-07-09T06:10:06;23.40;1.00
2409;DHT22;8463;48.094;7.970;2023-07-09T06:12:31;23.60;1.00
2409;DHT22;8463;48.094;7.970;2023-07-09T06:14:57;23.70;1.00
2409;DHT22;8463;48.094;7.970;2023-07-09T06:17:23;23.70;1.00
2409;DHT22;8463;48.094;7.970;2023-07-09T06:19:49;23.70;1.00
2409;DHT22;8463;48.094;7.970;2023-07-09T06:22:15;23.90;1.00
2409;DHT22;8463;48.094;7.970;2023-07-09T06:24:41;24.10;1.00
2409;DHT22;8463;48.094;7.970;2023-07-09T06:27:09;24.30;1.00
2409;DHT22;8463;48.094;7.970;2023-07-09T06:29:36;24.40;1.00
2409;DHT22;8463;48.094;7.970;2023-07-09T06:32:04;24.60;1.00
2409;DHT22;8463;48.094;7.970;2023-07-09T06:34:30;24.70;1.00
2409;DHT22;8463;48.094;7.970;2023-07-09T06:39:22;24.90;1.00
2409;DHT22;8463;48.094;7.970;2023-07-09T06:46:45;25.10;1.00
2409;DHT22;8463;48.094;7.970;2023-07-09T06:49:13;25.20;1.00
2409;DHT22;8463;48.094;7.970;2023-07-09T06:51:39;25.50;1.00
2409;DHT22;8463;48.094;7.970;2023-07-09T06:54:04;25.60;1.00
2409;DHT22;8463;48.094;7.970;2023-07-09T06:58:57;25.80;1.00
2409;DHT22;8463;48.094;7.970;2023-07-09T07:03:48;26.00;1.00
2409;DHT22;8463;48.094;7.970;2023-07-09T07:06:15;26.00;1.00
2409;DHT22;8463;48.094;7.970;2023-07-09T07:08:41;26.30;1.00
2409;DHT22;8463;48.094;7.970;2023-07-09T07:11:07;26.50;1.00
2409;DHT22;8463;48.094;7.970;2023-07-09T07:13:39;26.60;1.00
2409;DHT22;8463;48.094;7.970;2023-07-09T07:16:08;26.70;1.00
2409;DHT22;8463;48.094;7.970;2023-07-09T07:18:35;26.80;1.00
2409;DHT22;8463;48.094;7.970;2023-07-09T07:21:01;26.90;1.00
2409;DHT22;8463;48.094;7.970;2023-07-09T07:23:27;27.20;1.00
2409;DHT22;8463;48.094;7.970;2023-07-09T07:25:53;27.40;1.00
2409;DHT22;8463;48.094;7.970;2023-07-09T07:28:20;27.40;1.00
2409;DHT22;8463;48.094;7.970;2023-07-09T07:30:46;27.60;1.00
2409;DHT22;8463;48.094;7.970;2023-07-09T07:33:13;27.70;1.00
2409;DHT22;8463;48.094;7.970;2023-07-09T07:35:39;27.80;1.00
2409;DHT22;8463;48.094;7.970;2023-07-09T07:38:05;27.90;1.00
2409;DHT22;8463;48.094;7.970;2023-07-09T07:40:31;28.00;1.00
2409;DHT22;8463;48.094;7.970;2023-07-09T07:42:57;28.00;1.00
2409;DHT22;8463;48.094;7.970;2023-07-09T07:45:23;28.20;1.00
2409;DHT22;8463;48.094;7.970;2023-07-09T07:47:48;28.30;1.00
2409;DHT22;8463;48.094;7.970;2023-07-09T07:50:19;28.50;1.00
2409;DHT22;8463;48.094;7.970;2023-07-09T07:57:37;29.50;1.00
2409;DHT22;8463;48.094;7.970;2023-07-09T08:00:03;29.60;1.00
2409;DHT22;8463;48.094;7.970;2023-07-09T08:02:38;29.80;1.00
2409;DHT22;8463;48.094;7.970;2023-07-09T08:05:04;29.70;1.00
2409;DHT22;8463;48.094;7.970;2023-07-09T08:09:56;29.90;1.00
2409;DHT22;8463;48.094;7.970;2023-07-09T08:12:22;30.20;1.00
2409;DHT22;8463;48.094;7.970;2023-07-09T08:14:48;30.50;1.00
2409;DHT22;8463;48.094;7.970;2023-07-09T08:17:13;30.50;1.00
2409;DHT22;8463;48.094;7.970;2023-07-09T08:19:49;30.70;1.00
2409;DHT22;8463;48.094;7.970;2023-07-09T08:22:15;30.80;1.00
2409;DHT22;8463;48.094;7.970;2023-07-09T08:24:42;31.00;1.00
2409;DHT22;8463;48.094;7.970;2023-07-09T08:27:08;31.30;1.00
2409;DHT22;8463;48.094;7.970;2023-07-09T08:29:34;31.50;1.00
2409;DHT22;8463;48.094;7.970;2023-07-09T08:32:00;31.60;1.00
2409;DHT22;8463;48.094;7.970;2023-07-09T08:34:25;31.50;1.00
2409;DHT22;8463;48.094;7.970;2023-07-09T08:36:51;31.20;1.00
2409;DHT22;8463;48.094;7.970;2023-07-09T08:39:16;30.80;1.00
2409;DHT22;8463;48.094;7.970;2023-07-09T08:41:49;30.20;1.00
2409;DHT22;8463;48.094;7.970;2023-07-09T08:49:47;29.90;1.00
2409;DHT22;8463;48.094;7.970;2023-07-09T08:52:48;29.90;1.00
2409;DHT22;8463;48.094;7.970;2023-07-09T08:55:23;30.00;1.00
2409;DHT22;8463;48.094;7.970;2023-07-09T08:57:56;30.10;1.00
2409;DHT22;8463;48.094;7.970;2023-07-09T09:03:18;30.20;1.00
2409;DHT22;8463;48.094;7.970;2023-07-09T09:05:49;30.40;1.00
2409;DHT22;8463;48.094;7.970;2023-07-09T09:09:12;30.60;1.00
2409;DHT22;8463;48.094;7.970;2023-07-09T09:11:20;30.80;1.00
2409;DHT22;8463;48.094;7.970;2023-07-09T09:13:48;30.90;1.00
2409;DHT22;8463;48.094;7.970;2023-07-09T09:16:28;30.80;1.00
2409;DHT22;8463;48.094;7.970;2023-07-09T09:18:59;30.70;1.00
2409;DHT22;8463;48.094;7.970;2023-07-09T09:21:32;30.70;1.00
2409;DHT22;8463;48.094;7.970;2023-07-09T09:24:26;30.80;1.00
2409;DHT22;8463;48.094;7.970;2023-07-09T09:26:53;31.00;1.00
2409;DHT22;8463;48.094;7.970;2023-07-09T09:29:24;31.30;1.00
2409;DHT22;8463;48.094;7.970;2023-07-09T09:31:53;31.40;1.00
2409;DHT22;8463;48.094;7.970;2023-07-09T09:34:28;31.60;1.00
2409;DHT22;8463;48.094;7.970;2023-07-09T09:36:56;31.50;1.00
2409;DHT22;8463;48.094;7.970;2023-07-09T09:39:24;31.60;1.00
2409;DHT22;8463;48.094;7.970;2023-07-09T09:41:55;31.70;1.00
2409;DHT22;8463;48.094;7.970;2023-07-09T09:44:27;31.80;1.00
2409;DHT22;8463;48.094;7.970;2023-07-09T09:46:56;32.00;1.00
2409;DHT22;8463;48.094;7.970;2023-07-09T09:49:23;32.20;1.00
2409;DHT22;8463;48.094;7.970;2023-07-09T09:51:48;32.30;1.00
2409;DHT22;8463;48.094;7.970;2023-07-09T09:54:24;32.40;1.00
2409;DHT22;8463;48.094;7.970;2023-07-09T09:56:54;32.30;1.00
2409;DHT22;8463;48.094;7.970;2023-07-09T09:59:30;32.30;1.00
2409;DHT22;8463;48.094;7.970;2023-07-09T10:02:11;32.30;1.00
2409;DHT22;8463;48.094;7.970;2023-07-09T10:04:37;32.10;1.00
2409;DHT22;8463;48.094;7.970;2023-07-09T10:07:07;32.10;1.00
2409;DHT22;8463;48.094;7.970;2023-07-09T10:12:32;32.20;1.00
2409;DHT22;8463;48.094;7.970;2023-07-09T10:20:55;32.20;1.00
2409;DHT22;8463;48.094;7.970;2023-07-09T10:23:39;32.40;1.00
2409;DHT22;8463;48.094;7.970;2023-07-09T10:26:27;32.50;1.00
2409;DHT22;8463;48.094;7.970;2023-07-09T10:34:59;32.80;1.00
2409;DHT22;8463;48.094;7.970;2023-07-09T10:40:28;33.00;1.00
2409;DHT22;8463;48.094;7.970;2023-07-09T10:42:59;33.00;1.00
2409;DHT22;8463;48.094;7.970;2023-07-09T10:45:42;33.20;1.00
2409;DHT22;8463;48.094;7.970;2023-07-09T10:48:36;33.40;1.00
2409;DHT22;8463;48.094;7.970;2023-07-09T10:51:16;33.40;1.00
2409;DHT22;8463;48.094;7.970;2023-07-09T10:56:40;33.50;1.00
2409;DHT22;8463;48.094;7.970;2023-07-09T10:59:29;33.60;1.00
2409;DHT22;8463;48.094;7.970;2023-07-09T11:04:49;33.60;1.00
2409;DHT22;8463;48.094;7.970;2023-07-09T11:07:33;33.70;1.00
2409;DHT22;8463;48.094;7.970;2023-07-09T11:10:04;33.70;1.00
2409;DHT22;8463;48.094;7.970;2023-07-09T11:12:42;33.90;1.00
2409;DHT22;8463;48.094;7.970;2023-07-09T11:15:13;33.90;1.00
2409;DHT22;8463;48.094;7.970;2023-07-09T11:17:45;34.20;1.00
2409;DHT22;8463;48.094;7.970;2023-07-09T11:25:30;34.80;1.00
2409;DHT22;8463;48.094;7.970;2023-07-09T11:28:04;34.70;1.00
2409;DHT22;8463;48.094;7.970;2023-07-09T11:33:29;34.60;1.00
2409;DHT22;8463;48.094;7.970;2023-07-09T11:36:08;34.70;1.00
2409;DHT22;8463;48.094;7.970;2023-07-09T11:38:43;34.80;1.00
2409;DHT22;8463;48.094;7.970;2023-07-09T11:44:14;35.10;1.00
2409;DHT22;8463;48.094;7.970;2023-07-09T11:46:54;35.20;1.00
2409;DHT22;8463;48.094;7.970;2023-07-09T11:49:38;35.00;1.00
2409;DHT22;8463;48.094;7.970;2023-07-09T11:52:08;34.80;1.00
2409;DHT22;8463;48.094;7.970;2023-07-09T11:54:37;34.90;1.00
2409;DHT22;8463;48.094;7.970;2023-07-09T11:57:03;35.10;1.00
2409;DHT22;8463;48.094;7.970;2023-07-09T11:59:39;35.30;1.00
2409;DHT22;8463;48.094;7.970;2023-07-09T12:02:06;35.40;1.00
2409;DHT22;8463;48.094;7.970;2023-07-09T12:04:39;35.40;1.00
2409;DHT22;8463;48.094;7.970;2023-07-09T12:07:06;35.20;1.00
2409;DHT22;8463;48.094;7.970;2023-07-09T12:09:36;35.50;1.00
2409;DHT22;8463;48.094;7.970;2023-07-09T12:12:03;35.40;1.00
2409;DHT22;8463;48.094;7.970;2023-07-09T12:16:54;35.70;1.00
2409;DHT22;8463;48.094;7.970;2023-07-09T12:19:23;35.90;1.00
2409;DHT22;8463;48.094;7.970;2023-07-09T12:21:55;36.10;1.00
2409;DHT22;8463;48.094;7.970;2023-07-09T12:24:28;35.90;1.00
2409;DHT22;8463;48.094;7.970;2023-07-09T12:26:57;35.80;1.00
2409;DHT22;8463;48.094;7.970;2023-07-09T12:29:34;35.50;1.00
2409;DHT22;8463;48.094;7.970;2023-07-09T12:32:11;35.70;1.00
2409;DHT22;8463;48.094;7.970;2023-07-09T12:34:37;36.10;1.00
2409;DHT22;8463;48.094;7.970;2023-07-09T12:37:03;36.10;1.00
2409;DHT22;8463;48.094;7.970;2023-07-09T12:39:31;36.30;1.00
2409;DHT22;8463;48.094;7.970;2023-07-09T12:42:00;36.00;1.00
2409;DHT22;8463;48.094;7.970;2023-07-09T12:44:31;36.00;1.00
2409;DHT22;8463;48.094;7.970;2023-07-09T12:46:59;36.00;1.00
2409;DHT22;8463;48.094;7.970;2023-07-09T12:49:37;36.00;1.00
2409;DHT22;8463;48.094;7.970;2023-07-09T12:52:12;36.00;1.00
2409;DHT22;8463;48.094;7.970;2023-07-09T12:54:39;36.10;1.00
2409;DHT22;8463;48.094;7.970;2023-07-09T12:57:14;36.00;1.00
2409;DHT22;8463;48.094;7.970;2023-07-09T12:59:42;35.90;1.00
2409;DHT22;8463;48.094;7.970;2023-07-09T13:02:23;35.70;1.00
2409;DHT22;8463;48.094;7.970;2023-07-09T13:04:59;35.70;1.00
2409;DHT22;8463;48.094;7.970;2023-07-09T13:07:32;35.70;1.00
2409;DHT22;8463;48.094;7.970;2023-07-09T13:10:23;35.60;1.00
2409;DHT22;8463;48.094;7.970;2023-07-09T13:12:52;35.50;1.00
2409;DHT22;8463;48.094;7.970;2023-07-09T13:15:31;35.50;1.00
2409;DHT22;8463;48.094;7.970;2023-07-09T13:18:05;35.50;1.00
2409;DHT22;8463;48.094;7.970;2023-07-09T13:20:33;35.50;1.00
2409;DHT22;8463;48.094;7.970;2023-07-09T13:25:38;35.40;1.00
2409;DHT22;8463;48.094;7.970;2023-07-09T13:28:03;35.40;1.00
2409;DHT22;8463;48.094;7.970;2023-07-09T13:30:34;35.40;1.00
2409;DHT22;8463;48.094;7.970;2023-07-09T13:33:00;35.50;1.00
2409;DHT22;8463;48.094;7.970;2023-07-09T13:35:25;35.80;1.00
2409;DHT22;8463;48.094;7.970;2023-07-09T13:37:51;36.30;1.00
2409;DHT22;8463;48.094;7.970;2023-07-09T13:40:17;36.70;1.00
2409;DHT22;8463;48.094;7.970;2023-07-09T13:42:44;36.70;1.00
2409;DHT22;8463;48.094;7.970;2023-07-09T13:45:30;36.80;1.00
2409;DHT22;8463;48.094;7.970;2023-07-09T13:47:56;36.30;1.00
2409;DHT22;8463;48.094;7.970;2023-07-09T13:50:21;36.30;1.00
2409;DHT22;8463;48.094;7.970;2023-07-09T13:52:49;36.30;1.00
2409;DHT22;8463;48.094;7.970;2023-07-09T13:55:22;36.20;1.00
2409;DHT22;8463;48.094;7.970;2023-07-09T13:57:49;36.40;1.00
2409;DHT22;8463;48.094;7.970;2023-07-09T14:00:15;36.10;1.00
2409;DHT22;8463;48.094;7.970;2023-07-09T14:02:40;36.10;1.00
2409;DHT22;8463;48.094;7.970;2023-07-09T14:05:07;36.50;1.00
2409;DHT22;8463;48.094;7.970;2023-07-09T14:07:36;36.40;1.00
2409;DHT22;8463;48.094;7.970;2023-07-09T14:10:07;36.40;1.00
2409;DHT22;8463;48.094;7.970;2023-07-09T14:12:36;36.80;1.00
2409;DHT22;8463;48.094;7.970;2023-07-09T14:15:11;36.60;1.00
2409;DHT22;8463;48.094;7.970;2023-07-09T14:17:38;36.80;1.00
2409;DHT22;8463;48.094;7.970;2023-07-09T14:20:07;36.80;1.00
2409;DHT22;8463;48.094;7.970;2023-07-09T14:22:35;36.60;1.00
2409;DHT22;8463;48.094;7.970;2023-07-09T14:25:02;36.70;1.00
2409;DHT22;8463;48.094;7.970;2023-07-09T14:27:31;37.10;1.00
2409;DHT22;8463;48.094;7.970;2023-07-09T14:29:57;37.40;1.00
2409;DHT22;8463;48.094;7.970;2023-07-09T14:32:35;37.00;1.00
2409;DHT22;8463;48.094;7.970;2023-07-09T14:35:05;36.90;1.00
2409;DHT22;8463;48.094;7.970;2023-07-09T14:37:35;36.80;1.00
2409;DHT22;8463;48.094;7.970;2023-07-09T14:40:00;36.80;1.00
2409;DHT22;8463;48.094;7.970;2023-07-09T14:42:26;36.80;1.00
2409;DHT22;8463;48.094;7.970;2023-07-09T14:44:52;37.00;1.00
2409;DHT22;8463;48.094;7.970;2023-07-09T14:47:20;37.00;1.00
2409;DHT22;8463;48.094;7.970;2023-07-09T14:49:46;36.80;1.00
2409;DHT22;8463;48.094;7.970;2023-07-09T14:52:14;36.90;1.00
2409;DHT22;8463;48.094;7.970;2023-07-09T14:54:47;37.10;1.00
2409;DHT22;8463;48.094;7.970;2023-07-09T14:57:26;37.10;1.00
2409;DHT22;8463;48.094;7.970;2023-07-09T14:59:59;37.00;1.00
2409;DHT22;8463;48.094;7.970;2023-07-09T15:02:40;36.60;1.00
2409;DHT22;8463;48.094;7.970;2023-07-09T15:05:19;36.60;1.00
2409;DHT22;8463;48.094;7.970;2023-07-09T15:07:45;36.70;1.00
2409;DHT22;8463;48.094;7.970;2023-07-09T15:10:22;36.70;1.00
2409;DHT22;8463;48.094;7.970;2023-07-09T15:12:48;37.00;1.00
2409;DHT22;8463;48.094;7.970;2023-07-09T15:15:29;37.40;1.00
2409;DHT22;8463;48.094;7.970;2023-07-09T15:18:01;37.70;1.00
2409;DHT22;8463;48.094;7.970;2023-07-09T15:20:39;37.80;1.00
2409;DHT22;8463;48.094;7.970;2023-07-09T15:23:09;37.80;1.00
2409;DHT22;8463;48.094;7.970;2023-07-09T15:25:36;37.50;1.00
2409;DHT22;8463;48.094;7.970;2023-07-09T15:28:01;37.20;1.00
2409;DHT22;8463;48.094;7.970;2023-07-09T15:30:29;36.80;1.00
2409;DHT22;8463;48.094;7.970;2023-07-09T15:32:57;36.90;1.00
2409;DHT22;8463;48.094;7.970;2023-07-09T15:35:23;37.30;1.00
2409;DHT22;8463;48.094;7.970;2023-07-09T15:37:49;37.50;1.00
2409;DHT22;8463;48.094;7.970;2023-07-09T15:40:41;37.50;1.00
2409;DHT22;8463;48.094;7.970;2023-07-09T15:43:08;37.40;1.00
2409;DHT22;8463;48.094;7.970;2023-07-09T15:45:39;37.30;1.00
2409;DHT22;8463;48.094;7.970;2023-07-09T15:50:47;37.10;1.00
2409;DHT22;8463;48.094;7.970;2023-07-09T15:53:13;36.80;1.00
2409;DHT22;8463;48.094;7.970;2023-07-09T15:55:39;36.80;1.00
2409;DHT22;8463;48.094;7.970;2023-07-09T15:58:05;36.70;1.00
2409;DHT22;8463;48.094;7.970;2023-07-09T16:00:32;36.70;1.00
2409;DHT22;8463;48.094;7.970;2023-07-09T16:05:29;36.50;1.00
2409;DHT22;8463;48.094;7.970;2023-07-09T16:07:57;36.60;1.00
2409;DHT22;8463;48.094;7.970;2023-07-09T16:10:27;36.40;1.00
2409;DHT22;8463;48.094;7.970;2023-07-09T16:12:55;36.20;1.00
2409;DHT22;8463;48.094;7.970;2023-07-09T16:15:22;36.00;1.00
2409;DHT22;8463;48.094;7.970;2023-07-09T16:17:52;35.70;1.00
2409;DHT22;8463;48.094;7.970;2023-07-09T16:20:22;35.60;1.00
2409;DHT22;8463;48.094;7.970;2023-07-09T16:22:52;35.50;1.00
2409;DHT22;8463;48.094;7.970;2023-07-09T16:27:51;35.50;1.00
2409;DHT22;8463;48.094;7.970;2023-07-09T16:30:20;35.50;1.00
2409;DHT22;8463;48.094;7.970;2023-07-09T16:32:49;35.50;1.00
2409;DHT22;8463;48.094;7.970;2023-07-09T16:35:19;35.60;1.00
2409;DHT22;8463;48.094;7.970;2023-07-09T16:37:46;35.70;1.00
2409;DHT22;8463;48.094;7.970;2023-07-09T16:40:15;35.80;1.00
2409;DHT22;8463;48.094;7.970;2023-07-09T16:42:41;35.70;1.00
2409;DHT22;8463;48.094;7.970;2023-07-09T16:45:07;35.60;1.00
2409;DHT22;8463;48.094;7.970;2023-07-09T16:47:34;35.30;1.00
2409;DHT22;8463;48.094;7.970;2023-07-09T16:49:59;35.30;1.00
2409;DHT22;8463;48.094;7.970;2023-07-09T16:52:25;35.10;1.00
2409;DHT22;8463;48.094;7.970;2023-07-09T16:54:52;35.10;1.00
2409;DHT22;8463;48.094;7.970;2023-07-09T16:57:31;34.90;1.00
2409;DHT22;8463;48.094;7.970;2023-07-09T17:02:51;34.80;1.00
2409;DHT22;8463;48.094;7.970;2023-07-09T17:05:17;34.80;1.00
2409;DHT22;8463;48.094;7.970;2023-07-09T17:07:43;34.70;1.00
2409;DHT22;8463;48.094;7.970;2023-07-09T17:10:12;34.40;1.00
2409;DHT22;8463;48.094;7.970;2023-07-09T17:12:38;34.10;1.00
2409;DHT22;8463;48.094;7.970;2023-07-09T17:17:39;33.60;1.00
2409;DHT22;8463;48.094;7.970;2023-07-09T17:20:07;33.40;1.00
2409;DHT22;8463;48.094;7.970;2023-07-09T17:22:34;33.10;1.00
2409;DHT22;8463;48.094;7.970;2023-07-09T17:25:21;32.80;1.00
2409;DHT22;8463;48.094;7.970;2023-07-09T17:27:51;32.70;1.00
2409;DHT22;8463;48.094;7.970;2023-07-09T17:30:17;32.70;1.00
2409;DHT22;8463;48.094;7.970;2023-07-09T17:32:45;32.70;1.00
2409;DHT22;8463;48.094;7.970;2023-07-09T17:35:16;32.80;1.00
2409;DHT22;8463;48.094;7.970;2023-07-09T17:37:46;32.60;1.00
2409;DHT22;8463;48.094;7.970;2023-07-09T17:40:30;32.50;1.00
2409;DHT22;8463;48.094;7.970;2023-07-09T17:43:10;32.50;1.00
2409;DHT22;8463;48.094;7.970;2023-07-09T17:45:40;32.50;1.00
2409;DHT22;8463;48.094;7.970;2023-07-09T17:48:17;32.40;1.00
2409;DHT22;8463;48.094;7.970;2023-07-09T17:50:46;32.40;1.00
2409;DHT22;8463;48.094;7.970;2023-07-09T17:53:21;32.40;1.00
2409;DHT22;8463;48.094;7.970;2023-07-09T17:55:53;32.60;1.00
2409;DHT22;8463;48.094;7.970;2023-07-09T17:58:28;32.80;1.00
2409;DHT22;8463;48.094;7.970;2023-07-09T18:01:03;32.80;1.00
2409;DHT22;8463;48.094;7.970;2023-07-09T18:03:29;32.70;1.00
2409;DHT22;8463;48.094;7.970;2023-07-09T18:05:54;32.50;1.00
2409;DHT22;8463;48.094;7.970;2023-07-09T18:08:20;32.30;1.00
2409;DHT22;8463;48.094;7.970;2023-07-09T18:10:52;32.30;1.00
2409;DHT22;8463;48.094;7.970;2023-07-09T18:13:20;31.90;1.00